Time;durP1;ratioP1;P1;durP2;ratioP2;P2;SDS_P1;SDS_P2;PMS_P1;PMS_P2;Temp;Humidity;BMP_temperature;BMP_pressure;BME280_temperature;BME280_humidity;BME280_pressure;Samples;Min_cycle;Max_cycle;Signal;HPM_P1;HPM_P2
2024/03/13 00:03:42;;;;;;;2.33;2.03;;;10.00;99.90;;;;;;10057070;28;20136;-66
2024/03/13 00:08:33;;;;;;;2.55;1.80;;;10.00;99.90;;;;;;10053647;28;20149;-68
2024/03/13 00:13:24;;;;;;;3.60;1.77;;;10.00;99.90;;;;;;10061525;28;20117;-69
2024/03/13 00:18:14;;;;;;;3.30;1.92;;;10.10;99.90;;;;;;10058422;28;20037;-66
2024/03/13 00:23:05;;;;;;;2.95;1.40;;;10.10;99.90;;;;;;10053737;28;20027;-66
2024/03/13 00:27:59;;;;;;;2.55;2.00;;;10.10;99.90;;;;;;10059834;28;20025;-67
2024/03/13 00:32:53;;;;;;;2.78;1.73;;;10.10;99.90;;;;;;10049455;28;20108;-69
2024/03/13 00:37:45;;;;;;;3.33;2.00;;;10.00;99.90;;;;;;10049713;28;20132;-66
2024/03/13 00:42:36;;;;;;;3.90;2.17;;;10.00;99.90;;;;;;10055506;28;20025;-67
2024/03/13 00:47:26;;;;;;;3.80;1.92;;;10.00;99.90;;;;;;10053616;28;20523;-66
2024/03/13 00:52:17;;;;;;;3.20;1.63;;;9.90;99.90;;;;;;10050787;28;20113;-68
2024/03/13 00:57:08;;;;;;;2.67;1.70;;;10.00;99.90;;;;;;10048283;28;20045;-65
2024/03/13 01:02:02;;;;;;;3.35;2.05;;;10.00;99.90;;;;;;10054889;28;20041;-65
2024/03/13 01:06:53;;;;;;;3.25;1.58;;;9.90;99.90;;;;;;10053519;28;20037;-67
2024/03/13 01:11:43;;;;;;;4.43;1.80;;;9.90;99.90;;;;;;10054958;28;20029;-68
2024/03/13 01:16:34;;;;;;;2.22;1.48;;;10.00;99.90;;;;;;10057500;28;20554;-69
2024/03/13 01:21:25;;;;;;;2.40;1.52;;;10.00;99.90;;;;;;10053521;28;20170;-68
2024/03/13 01:26:16;;;;;;;3.03;1.48;;;10.00;99.90;;;;;;10057675;28;20033;-69
2024/03/13 01:31:07;;;;;;;3.00;1.70;;;10.00;99.90;;;;;;10051964;28;20025;-71
2024/03/13 01:36:00;;;;;;;2.67;1.40;;;10.00;99.90;;;;;;10053867;28;20430;-71
2024/03/13 01:56:34;;;;;;;2.83;1.33;;;10.20;99.90;;;;;;10058621;28;20083;-68
2024/03/13 02:06:38;;;;;;;3.05;1.55;;;10.10;99.90;;;;;;10042702;28;20044;-69
2024/03/13 02:11:28;;;;;;;2.67;1.50;;;10.10;99.90;;;;;;10060330;28;20037;-68
2024/03/13 02:16:20;;;;;;;2.55;1.52;;;10.10;99.90;;;;;;10056543;28;20099;-68
2024/03/13 02:21:14;;;;;;;1.80;1.58;;;10.10;99.90;;;;;;10062459;28;20463;-68
2024/03/13 02:26:05;;;;;;;2.35;1.55;;;10.10;99.90;;;;;;10055018;28;20067;-70
2024/03/13 02:30:55;;;;;;;1.77;1.60;;;10.10;99.90;;;;;;10060074;28;20026;-68
2024/03/13 02:35:46;;;;;;;2.42;1.48;;;10.10;99.90;;;;;;10078345;28;20045;-70
2024/03/13 02:40:37;;;;;;;2.92;1.80;;;10.10;99.90;;;;;;10057992;28;20518;-69
2024/03/13 02:45:27;;;;;;;2.70;1.27;;;10.10;99.90;;;;;;10059352;28;20102;-69
2024/03/13 02:50:19;;;;;;;2.22;1.30;;;10.10;99.90;;;;;;10063514;28;20057;-68
2024/03/13 02:55:10;;;;;;;2.20;1.35;;;10.10;99.90;;;;;;10058359;28;20132;-71
2024/03/13 03:00:03;;;;;;;3.17;1.42;;;10.20;99.90;;;;;;10052345;28;20029;-71
2024/03/13 03:04:53;;;;;;;2.72;1.48;;;10.10;99.90;;;;;;10057102;28;20116;-71
2024/03/13 03:09:44;;;;;;;2.03;1.48;;;10.10;99.90;;;;;;10057617;28;20116;-72
2024/03/13 03:14:36;;;;;;;1.42;1.27;;;10.20;99.90;;;;;;10064333;28;20581;-72
2024/03/13 03:19:27;;;;;;;1.90;1.27;;;10.20;99.90;;;;;;10067515;28;20495;-73
2024/03/13 03:24:17;;;;;;;2.33;1.23;;;10.20;99.90;;;;;;10057906;28;20033;-70
2024/03/13 03:29:08;;;;;;;2.20;1.23;;;10.20;99.90;;;;;;10051031;28;20071;-71
2024/03/13 03:33:59;;;;;;;1.80;1.52;;;10.30;99.90;;;;;;10054454;28;20582;-71
2024/03/13 03:38:50;;;;;;;1.73;1.17;;;10.20;99.90;;;;;;10064361;28;20199;-70
2024/03/13 03:43:41;;;;;;;2.13;1.10;;;10.20;99.90;;;;;;10050170;28;20547;-70
2024/03/13 03:48:32;;;;;;;3.00;1.63;;;10.30;99.90;;;;;;10056021;28;20122;-70
2024/03/13 03:53:22;;;;;;;2.30;1.13;;;10.30;99.90;;;;;;10050603;28;20618;-72
2024/03/13 03:58:13;;;;;;;3.22;1.40;;;10.30;99.90;;;;;;10053291;28;20060;-70
2024/03/13 04:03:05;;;;;;;2.15;1.20;;;10.30;99.90;;;;;;10055818;28;20034;-70
2024/03/13 04:07:55;;;;;;;2.95;1.67;;;10.30;99.90;;;;;;10051485;28;20032;-70
2024/03/13 04:12:47;;;;;;;1.90;1.45;;;10.30;99.90;;;;;;10055460;28;20061;-67
2024/03/13 04:17:39;;;;;;;2.03;1.23;;;10.30;99.90;;;;;;10055576;28;20053;-70
2024/03/13 04:22:31;;;;;;;2.30;1.23;;;10.30;99.90;;;;;;10055542;28;20021;-69
2024/03/13 04:27:22;;;;;;;1.88;1.20;;;10.30;99.90;;;;;;10055225;28;20037;-70
2024/03/13 04:32:13;;;;;;;2.10;1.38;;;10.30;99.90;;;;;;10055440;28;20033;-70
2024/03/13 04:37:03;;;;;;;1.90;1.10;;;10.30;99.90;;;;;;10055559;28;20580;-71
2024/03/13 04:41:54;;;;;;;1.48;1.00;;;10.30;99.90;;;;;;10051857;28;20080;-71
2024/03/13 04:46:45;;;;;;;1.85;0.90;;;10.30;99.90;;;;;;10054399;28;20026;-68
2024/03/13 04:51:37;;;;;;;1.38;1.00;;;10.30;99.90;;;;;;10049231;28;20052;-71
2024/03/13 04:56:28;;;;;;;2.55;1.20;;;10.30;99.90;;;;;;10053213;28;20040;-68
2024/03/13 05:01:19;;;;;;;1.65;1.38;;;10.30;99.90;;;;;;10049457;28;20025;-67
2024/03/13 05:06:09;;;;;;;2.25;1.48;;;10.30;99.90;;;;;;10050465;28;20029;-69
2024/03/13 05:11:00;;;;;;;2.17;1.25;;;10.30;99.90;;;;;;10058347;28;20098;-67
2024/03/13 05:15:52;;;;;;;1.20;1.08;;;10.30;99.90;;;;;;10057932;28;20530;-71
2024/03/13 05:20:42;;;;;;;1.75;1.27;;;10.30;99.90;;;;;;10058940;28;20083;-68
2024/03/13 05:25:33;;;;;;;1.98;1.05;;;10.30;99.90;;;;;;10061944;28;20104;-67
2024/03/13 05:30:23;;;;;;;2.53;1.42;;;10.30;99.90;;;;;;10059676;28;20025;-66
2024/03/13 05:35:14;;;;;;;2.05;1.48;;;10.30;99.90;;;;;;10061045;28;20052;-68
2024/03/13 05:40:12;;;;;;;3.17;0.90;;;10.30;99.90;;;;;;10060397;28;20045;-69
2024/03/13 05:45:03;;;;;;;1.70;1.23;;;10.30;99.90;;;;;;10060187;28;20048;-68
2024/03/13 05:49:54;;;;;;;2.42;1.15;;;10.30;99.90;;;;;;10059430;28;20474;-71
2024/03/13 05:54:45;;;;;;;1.90;1.05;;;10.30;99.90;;;;;;10059500;28;20053;-73
2024/03/13 05:59:35;;;;;;;1.83;1.13;;;10.30;99.90;;;;;;10065201;28;20132;-73
2024/03/13 06:04:26;;;;;;;1.27;0.85;;;10.30;99.90;;;;;;10057276;28;20090;-69
2024/03/13 06:09:17;;;;;;;1.23;0.68;;;10.30;99.90;;;;;;10059371;28;20061;-69
2024/03/13 06:14:07;;;;;;;1.05;0.80;;;10.30;99.90;;;;;;10055263;28;20136;-70
2024/03/13 06:18:58;;;;;;;2.05;0.80;;;10.40;99.90;;;;;;10054969;28;20044;-68
2024/03/13 06:23:51;;;;;;;1.50;1.13;;;10.30;99.90;;;;;;10056996;28;20036;-71
2024/03/13 06:33:52;;;;;;;1.35;0.80;;;10.30;99.90;;;;;;10055923;28;20068;-72
2024/03/13 06:38:44;;;;;;;2.30;1.00;;;10.40;99.90;;;;;;10059815;28;20547;-72
2024/03/13 06:43:34;;;;;;;1.33;0.80;;;10.40;99.90;;;;;;10052502;28;20022;-72
2024/03/13 06:48:26;;;;;;;1.70;1.00;;;10.40;99.90;;;;;;10066822;28;20022;-70
2024/03/13 06:53:17;;;;;;;1.63;0.90;;;10.50;99.90;;;;;;10053820;28;20033;-70
2024/03/13 06:58:07;;;;;;;1.80;0.70;;;10.50;99.90;;;;;;10058690;28;20045;-66
2024/03/13 07:03:01;;;;;;;3.22;0.88;;;10.50;99.90;;;;;;10049901;28;20384;-67
2024/03/13 07:07:52;;;;;;;1.80;1.60;;;10.50;99.90;;;;;;10043402;28;20510;-67
2024/03/13 07:12:43;;;;;;;2.40;1.50;;;10.50;99.90;;;;;;10050343;28;20049;-68
2024/03/13 07:17:33;;;;;;;2.55;1.45;;;10.60;99.90;;;;;;10049033;28;20116;-68
2024/03/13 07:22:25;;;;;;;0.95;0.80;;;10.60;99.90;;;;;;10065319;28;20021;-69
2024/03/13 07:27:15;;;;;;;1.67;0.80;;;10.60;99.90;;;;;;10045194;28;20120;-67
2024/03/13 07:32:06;;;;;;;1.33;1.08;;;10.70;99.90;;;;;;10047716;28;20106;-71
2024/03/13 07:36:58;;;;;;;1.35;1.08;;;10.70;99.90;;;;;;10057998;28;20045;-72
2024/03/13 07:41:48;;;;;;;0.88;0.73;;;10.70;99.90;;;;;;10043861;28;20112;-67
2024/03/13 07:46:39;;;;;;;0.93;0.70;;;10.70;99.90;;;;;;10048784;28;20124;-69
2024/03/13 07:51:30;;;;;;;2.50;0.85;;;10.70;99.90;;;;;;10048917;28;20027;-68
2024/03/13 07:56:20;;;;;;;1.38;0.95;;;10.70;99.90;;;;;;10053442;28;20065;-67
2024/03/13 08:01:11;;;;;;;2.25;1.30;;;10.70;99.90;;;;;;10036479;28;20029;-68
2024/03/13 08:06:02;;;;;;;2.28;1.15;;;10.70;99.90;;;;;;10040133;28;20172;-65
2024/03/13 08:10:52;;;;;;;1.90;1.17;;;10.70;99.90;;;;;;10046340;28;20032;-69
2024/03/13 08:15:43;;;;;;;1.98;1.10;;;10.80;99.90;;;;;;10052538;28;20116;-67
2024/03/13 08:20:34;;;;;;;1.85;1.13;;;10.80;99.90;;;;;;10055248;28;20026;-69
2024/03/13 08:25:25;;;;;;;1.20;0.70;;;10.80;99.90;;;;;;10037386;28;20036;-66
2024/03/13 08:30:17;;;;;;;1.63;0.80;;;10.80;99.90;;;;;;10047718;28;20026;-70
2024/03/13 08:35:08;;;;;;;3.38;0.90;;;10.90;99.90;;;;;;10047482;28;20575;-67
2024/03/13 08:40:00;;;;;;;2.90;1.23;;;10.90;99.90;;;;;;10055466;28;20402;-67
2024/03/13 08:44:51;;;;;;;1.30;0.90;;;10.90;99.90;;;;;;10046875;28;20348;-66
2024/03/13 08:49:42;;;;;;;1.63;1.23;;;10.90;99.90;;;;;;10042652;28;20713;-65
2024/03/13 08:54:33;;;;;;;1.92;1.20;;;11.00;99.90;;;;;;10060155;28;20096;-66
2024/03/13 08:59:24;;;;;;;2.40;0.80;;;11.00;99.90;;;;;;10048594;28;20033;-65
2024/03/13 09:04:15;;;;;;;2.13;1.02;;;11.10;99.90;;;;;;10048314;28;20033;-65
2024/03/13 09:09:09;;;;;;;2.80;1.00;;;11.10;99.90;;;;;;10044728;28;20587;-67
2024/03/13 09:14:03;;;;;;;2.35;1.60;;;11.10;99.90;;;;;;10052913;28;20499;-67
2024/03/13 09:18:54;;;;;;;3.08;1.27;;;11.10;99.90;;;;;;10066813;28;20139;-68
2024/03/13 09:23:45;;;;;;;3.45;1.55;;;11.10;99.90;;;;;;10052796;28;20179;-66
2024/03/13 09:28:36;;;;;;;2.40;0.93;;;11.20;99.90;;;;;;10050492;28;20498;-72
2024/03/13 09:33:27;;;;;;;5.90;1.35;;;11.30;99.90;;;;;;10053550;28;20042;-69
2024/03/13 09:38:17;;;;;;;1.83;0.90;;;11.20;99.90;;;;;;10067212;28;20078;-72
2024/03/13 09:43:09;;;;;;;4.35;1.50;;;11.30;99.90;;;;;;10050572;28;20021;-73
2024/03/13 09:48:01;;;;;;;1.30;1.20;;;11.30;99.90;;;;;;10047415;28;20025;-66
2024/03/13 09:52:54;;;;;;;2.97;1.80;;;11.40;99.90;;;;;;10048030;28;20112;-67
2024/03/13 09:57:49;;;;;;;1.80;1.08;;;11.50;99.90;;;;;;10045523;28;20050;-66
2024/03/13 10:02:42;;;;;;;2.28;1.40;;;11.50;99.90;;;;;;10054095;28;20025;-68
2024/03/13 10:07:33;;;;;;;2.05;1.30;;;11.60;99.90;;;;;;10058886;28;20495;-68
2024/03/13 10:12:24;;;;;;;1.70;0.98;;;11.70;99.90;;;;;;10062004;28;20029;-69
2024/03/13 10:17:18;;;;;;;1.92;1.30;;;11.70;99.90;;;;;;10059049;28;20033;-67
2024/03/13 10:22:10;;;;;;;1.50;1.17;;;11.70;99.90;;;;;;10057102;28;20018;-72
2024/03/13 10:27:05;;;;;;;2.28;1.60;;;11.70;99.90;;;;;;10053938;28;20041;-71
2024/03/13 10:31:56;;;;;;;3.00;1.50;;;11.80;99.90;;;;;;10051276;28;20037;-69
2024/03/13 10:36:47;;;;;;;1.83;1.23;;;11.80;99.90;;;;;;10049147;28;20049;-70
2024/03/13 10:41:44;;;;;;;2.38;1.50;;;11.90;99.90;;;;;;10053819;28;20075;-71
2024/03/13 10:46:36;;;;;;;1.38;0.98;;;11.90;99.90;;;;;;10050015;28;20033;-67
2024/03/13 10:51:30;;;;;;;2.20;1.25;;;11.90;99.90;;;;;;10038819;28;20049;-70
2024/03/13 10:56:20;;;;;;;2.80;1.20;;;12.00;99.90;;;;;;10040525;28;20113;-65
2024/03/13 11:01:17;;;;;;;2.33;1.35;;;12.20;99.90;;;;;;10051724;28;20025;-67
2024/03/13 11:06:10;;;;;;;2.78;1.35;;;12.30;99.90;;;;;;10055554;28;20037;-66
2024/03/13 11:11:01;;;;;;;1.60;1.08;;;12.40;99.90;;;;;;10054843;28;20033;-70
2024/03/13 11:15:56;;;;;;;2.50;1.10;;;12.40;99.90;;;;;;10056753;28;20060;-65
2024/03/13 11:21:02;;;;;;;1.80;1.25;;;12.50;99.90;;;;;;10058187;28;20042;-69
2024/03/13 11:25:56;;;;;;;2.42;1.65;;;12.50;99.90;;;;;;10055022;28;20163;-70
2024/03/13 11:30:48;;;;;;;2.25;1.27;;;12.50;99.90;;;;;;10040869;28;20373;-69
2024/03/13 11:35:40;;;;;;;1.80;1.40;;;12.40;99.90;;;;;;10055281;28;20047;-67
2024/03/13 11:40:36;;;;;;;3.65;1.38;;;12.40;99.90;;;;;;10048026;28;20515;-70
2024/03/13 11:45:27;;;;;;;2.72;1.55;;;12.40;99.90;;;;;;10048132;28;20143;-67
2024/03/13 11:50:18;;;;;;;3.80;1.83;;;12.50;99.90;;;;;;10049485;28;20107;-71
2024/03/13 11:55:24;;;;;;;2.05;1.42;;;12.60;99.90;;;;;;10068538;28;20092;-69
2024/03/13 12:00:21;;;;;;;1.75;1.50;;;12.70;99.90;;;;;;10051167;28;20155;-69
2024/03/13 12:05:34;;;;;;;1.35;1.15;;;12.90;99.90;;;;;;10050365;28;20076;-69
2024/03/13 12:10:27;;;;;;;2.20;1.55;;;13.00;99.90;;;;;;10055670;28;20104;-69
2024/03/13 12:15:18;;;;;;;2.63;1.27;;;12.90;99.90;;;;;;10050142;28;20052;-68
2024/03/13 12:20:14;;;;;;;3.65;1.90;;;12.90;99.90;;;;;;10043824;28;20546;-71
2024/03/13 12:25:09;;;;;;;1.98;1.48;;;12.80;99.90;;;;;;10034872;28;20030;-68
2024/03/13 12:30:00;;;;;;;;;;;12.80;99.90;;;;;;10044673;28;20451;-70
2024/03/13 12:34:51;;;;;;;3.00;1.88;;;12.70;99.90;;;;;;10041054;28;20008;-71
2024/03/13 12:39:42;;;;;;;3.90;1.80;;;12.80;99.90;;;;;;10036293;28;20034;-69
2024/03/13 12:44:32;;;;;;;2.97;1.58;;;12.80;99.90;;;;;;10040980;28;20061;-68
2024/03/13 12:49:23;;;;;;;2.50;1.98;;;12.90;99.90;;;;;;10041282;28;20087;-67
2024/03/13 12:54:15;;;;;;;2.42;1.52;;;13.10;99.90;;;;;;10042572;28;20037;-70
2024/03/13 12:59:05;;;;;;;2.33;1.40;;;13.10;99.90;;;;;;10034159;28;20025;-67
2024/03/13 13:03:56;;;;;;;3.75;1.90;;;13.20;99.90;;;;;;10041985;28;20711;-67
2024/03/13 13:08:51;;;;;;;5.78;2.03;;;13.20;99.90;;;;;;10043035;28;20047;-66
2024/03/13 13:13:41;;;;;;;2.37;1.70;;;13.40;99.90;;;;;;10039643;28;20046;-66
2024/03/13 13:18:32;;;;;;;4.38;1.45;;;13.60;99.90;;;;;;10048505;28;20079;-67
2024/03/13 13:23:24;;;;;;;4.68;1.85;;;13.80;99.90;;;;;;10051854;28;20389;-67
2024/03/13 13:28:17;;;;;;;2.60;1.67;;;14.00;99.90;;;;;;10067260;28;20136;-68
2024/03/13 13:33:08;;;;;;;2.30;1.70;;;14.30;99.90;;;;;;10050793;28;20135;-65
2024/03/13 13:38:01;;;;;;;2.25;1.48;;;14.40;99.90;;;;;;10057802;28;20045;-68
2024/03/13 13:42:54;;;;;;;3.60;1.38;;;14.50;99.90;;;;;;10060054;28;20087;-68
2024/03/13 13:47:45;;;;;;;1.42;1.00;;;14.90;99.90;;;;;;10050790;28;20040;-68
2024/03/13 13:52:38;;;;;;;3.78;1.40;;;15.20;99.90;;;;;;10058196;28;20802;-73
2024/03/13 13:57:29;;;;;;;2.05;1.17;;;15.20;99.90;;;;;;10057681;28;20037;-64
2024/03/13 14:02:19;;;;;;;1.90;1.40;;;15.20;99.90;;;;;;10056859;28;20025;-71
2024/03/13 14:07:10;;;;;;;1.10;0.90;;;15.30;99.90;;;;;;10054917;28;20124;-65
2024/03/13 14:12:01;;;;;;;1.30;0.88;;;15.20;99.90;;;;;;10048240;28;20474;-71
2024/03/13 14:16:52;;;;;;;1.70;0.95;;;15.10;99.90;;;;;;10054429;28;20049;-66
2024/03/13 14:21:43;;;;;;;1.48;1.00;;;14.90;99.90;;;;;;10053467;28;20022;-65
2024/03/13 14:26:34;;;;;;;1.73;1.13;;;14.70;99.90;;;;;;10056911;28;20052;-70
2024/03/13 14:31:24;;;;;;;1.77;1.23;;;14.70;99.90;;;;;;10060451;28;20022;-66
2024/03/13 14:36:15;;;;;;;3.10;1.25;;;14.60;99.90;;;;;;10056951;28;20041;-71
2024/03/13 14:41:12;;;;;;;3.60;1.17;;;14.60;99.90;;;;;;10053718;28;20481;-70
2024/03/13 14:46:03;;;;;;;3.30;1.30;;;14.60;99.90;;;;;;10051758;28;20030;-67
2024/03/13 14:50:54;;;;;;;2.47;1.52;;;14.60;99.90;;;;;;10039499;28;20197;-66
2024/03/13 14:55:44;;;;;;;1.48;1.10;;;14.60;99.90;;;;;;10054479;28;20045;-69
2024/03/13 15:00:35;;;;;;;2.55;1.65;;;14.60;99.90;;;;;;10052389;28;20030;-71
2024/03/13 15:05:26;;;;;;;4.32;1.30;;;14.60;99.90;;;;;;10051871;28;20033;-68
2024/03/13 15:10:22;;;;;;;2.80;1.48;;;14.60;99.90;;;;;;10055306;28;20029;-69
2024/03/13 15:15:13;;;;;;;2.85;1.55;;;14.70;99.90;;;;;;10050902;28;20045;-71
2024/03/13 15:20:05;;;;;;;3.05;1.27;;;14.70;99.90;;;;;;10059374;28;20559;-72
2024/03/13 15:24:57;;;;;;;2.00;1.10;;;14.60;99.90;;;;;;10052721;28;20029;-74
2024/03/13 15:29:48;;;;;;;2.20;1.33;;;14.70;99.90;;;;;;10054833;28;20026;-66
2024/03/13 15:34:39;;;;;;;3.08;1.13;;;14.70;99.90;;;;;;10055661;28;20038;-68
2024/03/13 15:39:30;;;;;;;1.65;1.08;;;14.70;99.90;;;;;;10055288;28;20025;-72
2024/03/13 15:44:21;;;;;;;3.25;1.20;;;14.70;99.90;;;;;;10053302;28;20051;-71
2024/03/13 15:49:12;;;;;;;2.17;1.27;;;14.70;99.90;;;;;;10048225;28;20385;-68
2024/03/13 15:54:04;;;;;;;3.35;1.52;;;14.70;99.90;;;;;;10044514;28;20026;-69
2024/03/13 15:58:54;;;;;;;2.17;1.00;;;14.70;99.90;;;;;;10064207;28;20044;-67
2024/03/13 16:03:46;;;;;;;1.60;1.00;;;14.70;99.90;;;;;;10050613;28;20492;-66
2024/03/13 16:08:49;;;;;;;1.70;0.80;;;14.70;99.90;;;;;;10052375;28;20509;-67
2024/03/13 16:13:42;;;;;;;1.60;0.93;;;14.80;99.90;;;;;;10049563;28;20534;-66
2024/03/13 16:18:32;;;;;;;3.00;1.10;;;14.70;99.90;;;;;;10048872;28;20041;-64
2024/03/13 16:23:23;;;;;;;1.60;1.00;;;14.70;99.90;;;;;;10049071;28;20022;-66
2024/03/13 16:28:14;;;;;;;3.00;1.08;;;14.70;99.90;;;;;;10050970;28;20597;-66
2024/03/13 16:33:05;;;;;;;1.45;1.02;;;14.70;99.90;;;;;;10049161;28;20121;-66
2024/03/13 16:37:56;;;;;;;2.38;1.30;;;14.60;99.90;;;;;;10040569;28;20124;-70
2024/03/13 16:42:46;;;;;;;3.05;1.48;;;14.60;99.90;;;;;;10049012;28;20033;-71
2024/03/13 16:47:39;;;;;;;2.40;1.27;;;14.60;99.90;;;;;;10035511;28;20025;-69
2024/03/13 16:52:32;;;;;;;3.22;1.60;;;14.60;99.90;;;;;;10046720;28;20029;-72
2024/03/13 16:57:22;;;;;;;3.03;1.50;;;14.60;99.90;;;;;;10042125;28;20065;-71
2024/03/13 17:02:17;;;;;;;3.72;1.73;;;14.60;99.90;;;;;;10040344;28;20056;-71
2024/03/13 17:07:09;;;;;;;4.50;1.85;;;14.60;99.90;;;;;;10046748;28;20557;-72
2024/03/13 17:11:59;;;;;;;1.92;1.20;;;14.60;99.90;;;;;;10054011;28;20757;-72
2024/03/13 17:16:50;;;;;;;2.00;1.25;;;14.60;99.90;;;;;;10061510;28;20072;-74
2024/03/13 17:21:40;;;;;;;4.32;1.48;;;14.60;99.90;;;;;;10073002;28;20025;-72
2024/03/13 17:26:32;;;;;;;1.63;1.20;;;14.60;99.90;;;;;;10054618;28;20049;-71
2024/03/13 17:31:23;;;;;;;4.72;1.60;;;14.50;99.90;;;;;;10059274;28;20021;-70
2024/03/13 17:36:17;;;;;;;1.83;1.42;;;14.60;99.90;;;;;;10056422;28;20040;-69
2024/03/13 17:41:08;;;;;;;1.65;1.52;;;14.60;99.90;;;;;;10058610;28;20026;-67
2024/03/13 17:45:59;;;;;;;1.60;1.40;;;14.60;99.90;;;;;;10061109;28;20025;-67
2024/03/13 17:50:50;;;;;;;3.53;2.05;;;14.50;99.90;;;;;;10073938;28;20426;-65
2024/03/13 17:55:42;;;;;;;2.05;1.70;;;14.50;99.90;;;;;;10062849;28;20053;-67
2024/03/13 18:00:32;;;;;;;3.40;1.70;;;14.50;99.90;;;;;;10044692;28;20030;-67
2024/03/13 18:05:24;;;;;;;2.33;1.83;;;14.50;99.90;;;;;;10051943;28;20026;-69
2024/03/13 18:10:19;;;;;;;2.42;2.20;;;14.50;99.90;;;;;;10059250;28;20483;-65
2024/03/13 18:15:10;;;;;;;3.33;2.03;;;14.60;99.90;;;;;;10051373;28;20042;-66
2024/03/13 18:20:03;;;;;;;10.25;2.55;;;14.50;99.90;;;;;;10058284;28;20276;-64
2024/03/13 18:24:56;;;;;;;3.40;2.67;;;14.50;99.90;;;;;;10056336;28;20026;-67
2024/03/13 18:29:46;;;;;;;4.15;2.50;;;14.50;99.90;;;;;;10054020;28;20034;-68
2024/03/13 18:34:38;;;;;;;5.72;3.00;;;14.50;99.90;;;;;;10050074;28;20044;-67
2024/03/13 18:39:29;;;;;;;4.50;2.65;;;14.50;99.90;;;;;;10041696;28;20072;-65
2024/03/13 18:44:24;;;;;;;3.25;2.13;;;14.50;99.90;;;;;;10053600;28;20037;-66
2024/03/13 18:49:14;;;;;;;4.97;2.63;;;14.50;99.90;;;;;;10071894;28;20356;-67
2024/03/13 18:54:05;;;;;;;5.25;2.67;;;14.50;99.90;;;;;;10052851;28;20582;-67
2024/03/13 18:58:56;;;;;;;4.40;3.75;;;14.50;99.90;;;;;;10058090;28;20586;-68
2024/03/13 19:03:47;;;;;;;6.43;3.60;;;14.50;99.90;;;;;;10061310;28;20087;-65
2024/03/13 19:08:38;;;;;;;4.35;2.80;;;14.50;99.90;;;;;;10057473;28;20030;-66
2024/03/13 19:13:29;;;;;;;5.22;2.47;;;14.50;99.90;;;;;;10053682;28;20057;-67
2024/03/13 19:18:20;;;;;;;3.42;2.50;;;14.50;99.90;;;;;;10050053;28;20029;-68
2024/03/13 19:23:10;;;;;;;5.28;2.30;;;14.50;99.90;;;;;;10053958;28;20041;-67
2024/03/13 19:28:02;;;;;;;3.97;2.40;;;14.50;99.90;;;;;;10056283;28;20021;-65
2024/03/13 19:32:53;;;;;;;3.35;2.20;;;14.50;99.90;;;;;;10060156;28;20044;-66
2024/03/13 19:37:43;;;;;;;3.55;1.67;;;14.50;99.90;;;;;;10061074;28;20041;-66
2024/03/13 19:42:34;;;;;;;4.25;1.83;;;14.50;99.90;;;;;;10056608;28;20026;-66
2024/03/13 19:47:29;;;;;;;6.25;2.92;;;14.50;99.90;;;;;;10050235;28;20040;-65
2024/03/13 19:52:22;;;;;;;4.87;2.90;;;14.50;99.90;;;;;;10049251;28;20045;-66
2024/03/13 19:57:12;;;;;;;5.35;3.03;;;14.40;99.90;;;;;;10057307;28;20048;-66
2024/03/13 20:02:03;;;;;;;3.95;2.30;;;14.50;99.90;;;;;;10048251;28;20036;-66
2024/03/13 20:06:57;;;;;;;6.35;3.38;;;14.40;99.90;;;;;;10061742;28;20087;-70
2024/03/13 20:11:50;;;;;;;6.20;3.05;;;14.40;99.90;;;;;;10051496;28;20037;-66
2024/03/13 20:16:41;;;;;;;5.68;3.55;;;14.40;99.90;;;;;;10048505;28;20451;-69
2024/03/13 20:21:33;;;;;;;7.95;3.83;;;14.40;99.90;;;;;;10069952;28;20452;-69
2024/03/13 20:26:26;;;;;;;7.55;4.25;;;14.30;99.90;;;;;;10046861;28;20029;-68
2024/03/13 20:31:17;;;;;;;7.80;4.55;;;14.30;99.90;;;;;;10047629;28;20464;-71
2024/03/13 20:36:09;;;;;;;5.80;3.28;;;14.30;99.90;;;;;;10045635;28;20088;-68
2024/03/13 20:41:00;;;;;;;7.03;3.72;;;14.20;99.90;;;;;;10041603;28;20025;-67
2024/03/13 20:45:51;;;;;;;11.55;4.57;;;14.20;99.90;;;;;;10040094;28;20034;-67
2024/03/13 20:50:42;;;;;;;8.85;3.97;;;14.20;99.90;;;;;;10047766;28;20027;-68
2024/03/13 20:55:32;;;;;;;4.93;3.65;;;14.10;99.90;;;;;;10053342;28;20052;-67
2024/03/13 21:00:27;;;;;;;7.90;3.95;;;14.10;99.90;;;;;;10044381;28;21181;-70
2024/03/13 21:05:18;;;;;;;7.75;3.85;;;14.10;99.90;;;;;;10040396;28;20030;-72
2024/03/13 21:10:09;;;;;;;3.78;3.25;;;14.00;99.90;;;;;;10039513;28;20029;-66
2024/03/13 21:15:00;;;;;;;7.60;3.47;;;14.00;99.90;;;;;;10053118;28;20053;-69
2024/03/13 21:19:51;;;;;;;4.85;3.25;;;14.00;99.90;;;;;;10053812;28;20087;-69
2024/03/13 21:24:42;;;;;;;5.47;3.53;;;13.90;99.90;;;;;;10052396;28;20068;-71
2024/03/13 21:29:33;;;;;;;7.40;3.72;;;13.90;99.90;;;;;;10050867;28;20026;-71
2024/03/13 21:34:25;;;;;;;5.07;3.90;;;13.90;99.90;;;;;;10047932;28;20049;-66
2024/03/13 21:39:16;;;;;;;4.95;3.35;;;13.90;99.90;;;;;;10056910;28;20112;-66
2024/03/13 21:44:07;;;;;;;6.43;3.92;;;13.90;99.90;;;;;;10043427;28;20120;-66
2024/03/13 21:48:58;;;;;;;6.82;4.05;;;13.80;99.90;;;;;;10047810;28;20018;-69
2024/03/13 21:53:48;;;;;;;6.40;3.45;;;13.80;99.90;;;;;;10050595;28;20052;-69
2024/03/13 21:58:39;;;;;;;5.97;3.55;;;13.80;99.90;;;;;;10048818;28;20064;-71
2024/03/13 22:03:31;;;;;;;5.55;3.50;;;13.80;99.90;;;;;;10056893;28;20108;-65
2024/03/13 22:08:22;;;;;;;8.40;4.07;;;13.70;99.90;;;;;;10061484;28;20117;-65
2024/03/13 22:13:12;;;;;;;11.57;4.72;;;13.70;99.90;;;;;;10053565;28;20121;-66
2024/03/13 22:18:04;;;;;;;8.00;4.13;;;13.70;99.90;;;;;;10059107;28;20124;-67
2024/03/13 22:22:54;;;;;;;8.10;3.95;;;13.60;99.90;;;;;;10051321;28;20118;-68
2024/03/13 22:27:45;;;;;;;5.22;4.00;;;13.60;99.90;;;;;;10055430;28;20112;-66
2024/03/13 22:32:36;;;;;;;6.32;3.53;;;13.50;99.90;;;;;;10058053;28;20053;-65
2024/03/13 22:37:26;;;;;;;5.72;3.67;;;13.50;99.90;;;;;;10050131;28;20132;-66
2024/03/13 22:42:17;;;;;;;7.93;4.30;;;13.50;99.90;;;;;;10053212;28;20076;-67
2024/03/13 22:47:08;;;;;;;5.65;3.50;;;13.40;99.90;;;;;;10079934;28;20038;-69
2024/03/13 22:51:59;;;;;;;6.57;3.67;;;13.40;99.90;;;;;;10047518;28;20550;-66
2024/03/13 22:56:50;;;;;;;4.35;2.90;;;13.30;99.90;;;;;;10046943;28;20036;-65
2024/03/13 23:01:43;;;;;;;5.80;3.45;;;13.30;99.90;;;;;;10041958;28;20556;-65
2024/03/13 23:06:33;;;;;;;5.47;3.00;;;13.30;99.90;;;;;;10044224;28;20029;-66
2024/03/13 23:11:24;;;;;;;5.53;3.17;;;13.30;99.90;;;;;;10055584;28;20145;-68
2024/03/13 23:16:15;;;;;;;4.32;3.03;;;13.30;99.90;;;;;;10078893;22;20111;-69
2024/03/13 23:21:06;;;;;;;8.38;4.10;;;13.20;99.90;;;;;;10092870;28;20044;-69
2024/03/13 23:25:57;;;;;;;5.97;3.50;;;13.20;99.90;;;;;;10078238;28;20111;-68
2024/03/13 23:30:50;;;;;;;5.18;3.63;;;13.20;99.90;;;;;;10078501;28;20035;-67
2024/03/13 23:35:41;;;;;;;5.40;3.65;;;13.10;99.90;;;;;;10085739;28;20537;-70
2024/03/13 23:40:33;;;;;;;5.55;3.83;;;13.10;99.90;;;;;;10089691;28;20111;-70
2024/03/13 23:45:25;;;;;;;5.72;4.22;;;13.10;99.90;;;;;;10083402;28;20037;-69
2024/03/13 23:50:24;;;;;;;5.82;3.88;;;13.10;99.90;;;;;;10073136;28;20140;-69
2024/03/13 23:55:16;;;;;;;7.38;4.00;;;13.10;99.90;;;;;;10081380;28;20418;-69
